sensor_id;sensor_type;location;lat;lon;timestamp;temperature;humidity
64817;DHT22;53289;45.602;11.904;2022-11-02T00:01:43;13.40;83.50
64817;DHT22;53289;45.602;11.904;2022-11-02T00:04:10;13.40;83.60
64817;DHT22;53289;45.602;11.904;2022-11-02T00:06:36;13.30;83.80
64817;DHT22;53289;45.602;11.904;2022-11-02T00:09:02;13.30;83.90
64817;DHT22;53289;45.602;11.904;2022-11-02T00:11:28;13.30;84.10
64817;DHT22;53289;45.602;11.904;2022-11-02T00:13:54;13.40;84.50
64817;DHT22;53289;45.602;11.904;2022-11-02T00:16:20;13.40;84.30
64817;DHT22;53289;45.602;11.904;2022-11-02T00:18:49;13.40;84.30
64817;DHT22;53289;45.602;11.904;2022-11-02T00:21:17;13.40;84.30
64817;DHT22;53289;45.602;11.904;2022-11-02T00:23:45;13.50;84.30
64817;DHT22;53289;45.602;11.904;2022-11-02T00:26:11;13.50;84.20
64817;DHT22;53289;45.602;11.904;2022-11-02T00:28:37;13.50;84.30
64817;DHT22;53289;45.602;11.904;2022-11-02T00:31:03;13.50;84.20
64817;DHT22;53289;45.602;11.904;2022-11-02T00:33:29;13.60;84.20
64817;DHT22;53289;45.602;11.904;2022-11-02T00:35:57;13.70;84.30
64817;DHT22;53289;45.602;11.904;2022-11-02T00:38:23;13.70;84.30
64817;DHT22;53289;45.602;11.904;2022-11-02T00:40:49;13.70;84.10
64817;DHT22;53289;45.602;11.904;2022-11-02T00:43:15;13.80;84.40
64817;DHT22;53289;45.602;11.904;2022-11-02T00:45:41;13.80;84.50
64817;DHT22;53289;45.602;11.904;2022-11-02T00:48:06;13.90;84.40
64817;DHT22;53289;45.602;11.904;2022-11-02T00:50:32;13.80;84.70
64817;DHT22;53289;45.602;11.904;2022-11-02T00:52:58;13.80;84.50
64817;DHT22;53289;45.602;11.904;2022-11-02T00:55:24;13.90;84.90
64817;DHT22;53289;45.602;11.904;2022-11-02T00:57:50;13.90;85.40
64817;DHT22;53289;45.602;11.904;2022-11-02T01:00:16;13.90;85.60
64817;DHT22;53289;45.602;11.904;2022-11-02T01:02:42;13.90;85.20
64817;DHT22;53289;45.602;11.904;2022-11-02T01:05:09;13.90;84.90
64817;DHT22;53289;45.602;11.904;2022-11-02T01:07:35;13.90;85.00
64817;DHT22;53289;45.602;11.904;2022-11-02T01:10:04;13.90;85.10
64817;DHT22;53289;45.602;11.904;2022-11-02T01:12:30;13.90;85.00
64817;DHT22;53289;45.602;11.904;2022-11-02T01:14:56;13.90;85.00
64817;DHT22;53289;45.602;11.904;2022-11-02T01:17:21;13.90;84.80
64817;DHT22;53289;45.602;11.904;2022-11-02T01:19:49;13.90;84.90
64817;DHT22;53289;45.602;11.904;2022-11-02T01:22:15;13.90;84.90
64817;DHT22;53289;45.602;11.904;2022-11-02T01:24:41;14.00;84.90
64817;DHT22;53289;45.602;11.904;2022-11-02T01:27:07;13.90;85.70
64817;DHT22;53289;45.602;11.904;2022-11-02T01:29:33;14.00;85.70
64817;DHT22;53289;45.602;11.904;2022-11-02T01:31:58;14.00;85.90
64817;DHT22;53289;45.602;11.904;2022-11-02T01:34:24;14.00;85.70
64817;DHT22;53289;45.602;11.904;2022-11-02T01:36:50;14.00;85.50
64817;DHT22;53289;45.602;11.904;2022-11-02T01:39:16;14.10;86.50
64817;DHT22;53289;45.602;11.904;2022-11-02T01:41:42;14.10;86.50
64817;DHT22;53289;45.602;11.904;2022-11-02T01:47:06;14.10;86.50
64817;DHT22;53289;45.602;11.904;2022-11-02T01:49:35;14.10;87.20
64817;DHT22;53289;45.602;11.904;2022-11-02T01:55:23;14.10;86.30
64817;DHT22;53289;45.602;11.904;2022-11-02T01:58:09;14.20;85.90
64817;DHT22;53289;45.602;11.904;2022-11-02T02:00:38;14.20;85.90
64817;DHT22;53289;45.602;11.904;2022-11-02T02:03:09;14.20;86.00
64817;DHT22;53289;45.602;11.904;2022-11-02T02:05:45;14.20;85.80
64817;DHT22;53289;45.602;11.904;2022-11-02T02:08:16;14.20;85.80
64817;DHT22;53289;45.602;11.904;2022-11-02T02:10:42;14.30;85.60
64817;DHT22;53289;45.602;11.904;2022-11-02T02:13:09;14.30;85.50
64817;DHT22;53289;45.602;11.904;2022-11-02T02:15:49;14.40;85.40
64817;DHT22;53289;45.602;11.904;2022-11-02T02:18:28;14.40;85.40
64817;DHT22;53289;45.602;11.904;2022-11-02T02:21:02;14.40;85.50
64817;DHT22;53289;45.602;11.904;2022-11-02T02:23:54;14.40;85.40
64817;DHT22;53289;45.602;11.904;2022-11-02T02:29:07;14.50;85.20
64817;DHT22;53289;45.602;11.904;2022-11-02T02:34:38;14.50;85.20
64817;DHT22;53289;45.602;11.904;2022-11-02T02:37:16;14.50;85.20
64817;DHT22;53289;45.602;11.904;2022-11-02T02:39:49;14.50;85.00
64817;DHT22;53289;45.602;11.904;2022-11-02T02:42:30;14.50;84.90
64817;DHT22;53289;45.602;11.904;2022-11-02T02:47:33;14.50;85.00
64817;DHT22;53289;45.602;11.904;2022-11-02T02:50:13;14.50;85.10
64817;DHT22;53289;45.602;11.904;2022-11-02T02:52:41;14.50;85.00
64817;DHT22;53289;45.602;11.904;2022-11-02T02:55:13;14.60;85.00
64817;DHT22;53289;45.602;11.904;2022-11-02T02:57:41;14.60;84.90
64817;DHT22;53289;45.602;11.904;2022-11-02T03:00:24;14.60;85.30
64817;DHT22;53289;45.602;11.904;2022-11-02T03:02:51;14.60;85.10
64817;DHT22;53289;45.602;11.904;2022-11-02T03:05:32;14.60;85.10
64817;DHT22;53289;45.602;11.904;2022-11-02T03:08:11;14.60;85.00
64817;DHT22;53289;45.602;11.904;2022-11-02T03:10:47;14.60;85.10
64817;DHT22;53289;45.602;11.904;2022-11-02T03:18:55;14.60;85.20
64817;DHT22;53289;45.602;11.904;2022-11-02T03:21:47;14.60;84.90
64817;DHT22;53289;45.602;11.904;2022-11-02T03:24:32;14.50;85.40
64817;DHT22;53289;45.602;11.904;2022-11-02T03:27:19;14.50;85.30
64817;DHT22;53289;45.602;11.904;2022-11-02T03:32:38;14.40;85.50
64817;DHT22;53289;45.602;11.904;2022-11-02T03:35:21;14.40;85.40
64817;DHT22;53289;45.602;11.904;2022-11-02T03:38:01;14.40;85.50
64817;DHT22;53289;45.602;11.904;2022-11-02T03:40:32;14.40;85.40
64817;DHT22;53289;45.602;11.904;2022-11-02T03:43:02;14.40;85.60
64817;DHT22;53289;45.602;11.904;2022-11-02T03:45:38;14.40;85.80
64817;DHT22;53289;45.602;11.904;2022-11-02T03:48:07;14.40;85.60
64817;DHT22;53289;45.602;11.904;2022-11-02T03:50:37;14.40;85.80
64817;DHT22;53289;45.602;11.904;2022-11-02T03:53:11;14.40;85.90
64817;DHT22;53289;45.602;11.904;2022-11-02T03:55:46;14.40;85.90
64817;DHT22;53289;45.602;11.904;2022-11-02T03:58:13;14.30;85.90
64817;DHT22;53289;45.602;11.904;2022-11-02T04:00:47;14.30;85.80
64817;DHT22;53289;45.602;11.904;2022-11-02T04:03:16;14.40;85.90
64817;DHT22;53289;45.602;11.904;2022-11-02T04:05:43;14.40;86.00
64817;DHT22;53289;45.602;11.904;2022-11-02T04:08:12;14.40;85.90
64817;DHT22;53289;45.602;11.904;2022-11-02T04:10:47;14.40;85.80
64817;DHT22;53289;45.602;11.904;2022-11-02T04:13:32;14.40;85.80
64817;DHT22;53289;45.602;11.904;2022-11-02T04:16:18;14.40;85.90
64817;DHT22;53289;45.602;11.904;2022-11-02T04:18:44;14.30;85.80
64817;DHT22;53289;45.602;11.904;2022-11-02T04:21:28;14.40;86.10
64817;DHT22;53289;45.602;11.904;2022-11-02T04:23:55;14.30;86.50
64817;DHT22;53289;45.602;11.904;2022-11-02T04:26:40;14.30;86.90
64817;DHT22;53289;45.602;11.904;2022-11-02T04:29:06;14.20;87.50
64817;DHT22;53289;45.602;11.904;2022-11-02T04:31:32;14.20;87.60
64817;DHT22;53289;45.602;11.904;2022-11-02T04:33:58;14.10;87.50
64817;DHT22;53289;45.602;11.904;2022-11-02T04:36:27;14.00;87.40
64817;DHT22;53289;45.602;11.904;2022-11-02T04:38:53;14.00;87.80
64817;DHT22;53289;45.602;11.904;2022-11-02T04:41:20;14.00;87.70
64817;DHT22;53289;45.602;11.904;2022-11-02T04:44:05;14.00;87.40
64817;DHT22;53289;45.602;11.904;2022-11-02T04:46:33;14.00;87.30
64817;DHT22;53289;45.602;11.904;2022-11-02T04:49:00;14.00;87.10
64817;DHT22;53289;45.602;11.904;2022-11-02T04:51:28;14.10;86.80
64817;DHT22;53289;45.602;11.904;2022-11-02T04:53:55;14.10;86.80
64817;DHT22;53289;45.602;11.904;2022-11-02T04:56:23;14.10;87.10
64817;DHT22;53289;45.602;11.904;2022-11-02T04:58:50;14.10;87.70
64817;DHT22;53289;45.602;11.904;2022-11-02T05:01:18;14.10;87.70
64817;DHT22;53289;45.602;11.904;2022-11-02T05:03:48;14.10;87.80
64817;DHT22;53289;45.602;11.904;2022-11-02T05:06:16;14.00;87.80
64817;DHT22;53289;45.602;11.904;2022-11-02T05:08:42;14.10;87.50
64817;DHT22;53289;45.602;11.904;2022-11-02T05:11:09;14.10;87.50
64817;DHT22;53289;45.602;11.904;2022-11-02T05:13:36;14.20;87.20
64817;DHT22;53289;45.602;11.904;2022-11-02T05:16:03;14.20;87.40
64817;DHT22;53289;45.602;11.904;2022-11-02T05:18:29;14.20;87.20
64817;DHT22;53289;45.602;11.904;2022-11-02T05:20:57;14.20;87.20
64817;DHT22;53289;45.602;11.904;2022-11-02T05:23:24;14.20;87.50
64817;DHT22;53289;45.602;11.904;2022-11-02T05:26:00;14.30;87.10
64817;DHT22;53289;45.602;11.904;2022-11-02T05:28:27;14.30;86.90
64817;DHT22;53289;45.602;11.904;2022-11-02T05:30:54;14.30;86.80
64817;DHT22;53289;45.602;11.904;2022-11-02T05:33:21;14.40;86.40
64817;DHT22;53289;45.602;11.904;2022-11-02T05:35:47;14.40;86.40
64817;DHT22;53289;45.602;11.904;2022-11-02T05:38:13;14.40;86.40
64817;DHT22;53289;45.602;11.904;2022-11-02T05:40:39;14.40;86.40
64817;DHT22;53289;45.602;11.904;2022-11-02T05:43:08;14.50;86.30
64817;DHT22;53289;45.602;11.904;2022-11-02T05:45:35;14.60;86.20
64817;DHT22;53289;45.602;11.904;2022-11-02T05:48:04;14.60;86.20
64817;DHT22;53289;45.602;11.904;2022-11-02T05:50:33;14.60;86.00
64817;DHT22;53289;45.602;11.904;2022-11-02T05:52:59;14.60;86.00
64817;DHT22;53289;45.602;11.904;2022-11-02T05:55:25;14.60;86.00
64817;DHT22;53289;45.602;11.904;2022-11-02T05:57:52;14.60;85.90
64817;DHT22;53289;45.602;11.904;2022-11-02T06:00:19;14.60;86.00
64817;DHT22;53289;45.602;11.904;2022-11-02T06:02:54;14.60;86.00
64817;DHT22;53289;45.602;11.904;2022-11-02T06:05:20;14.60;85.90
64817;DHT22;53289;45.602;11.904;2022-11-02T06:07:46;14.50;85.80
64817;DHT22;53289;45.602;11.904;2022-11-02T06:10:12;14.50;85.90
64817;DHT22;53289;45.602;11.904;2022-11-02T06:12:37;14.40;85.90
64817;DHT22;53289;45.602;11.904;2022-11-02T06:15:04;14.40;85.90
64817;DHT22;53289;45.602;11.904;2022-11-02T06:17:40;14.40;86.00
64817;DHT22;53289;45.602;11.904;2022-11-02T06:20:07;14.50;86.10
64817;DHT22;53289;45.602;11.904;2022-11-02T06:22:40;14.50;86.00
64817;DHT22;53289;45.602;11.904;2022-11-02T06:25:07;14.50;86.20
64817;DHT22;53289;45.602;11.904;2022-11-02T06:27:33;14.50;86.30
64817;DHT22;53289;45.602;11.904;2022-11-02T06:30:00;14.50;86.20
64817;DHT22;53289;45.602;11.904;2022-11-02T06:32:26;14.50;86.00
64817;DHT22;53289;45.602;11.904;2022-11-02T06:34:52;14.50;86.10
64817;DHT22;53289;45.602;11.904;2022-11-02T06:37:18;14.50;86.10
64817;DHT22;53289;45.602;11.904;2022-11-02T06:39:44;14.50;86.10
64817;DHT22;53289;45.602;11.904;2022-11-02T06:42:11;14.50;86.20
64817;DHT22;53289;45.602;11.904;2022-11-02T06:44:36;14.50;86.20
64817;DHT22;53289;45.602;11.904;2022-11-02T06:47:02;14.40;86.20
64817;DHT22;53289;45.602;11.904;2022-11-02T06:49:28;14.40;86.30
64817;DHT22;53289;45.602;11.904;2022-11-02T06:51:54;14.40;86.40
64817;DHT22;53289;45.602;11.904;2022-11-02T06:54:20;14.40;86.40
64817;DHT22;53289;45.602;11.904;2022-11-02T06:56:46;14.40;86.50
64817;DHT22;53289;45.602;11.904;2022-11-02T06:59:12;14.40;86.60
64817;DHT22;53289;45.602;11.904;2022-11-02T07:01:38;14.50;86.60
64817;DHT22;53289;45.602;11.904;2022-11-02T07:04:04;14.50;86.70
64817;DHT22;53289;45.602;11.904;2022-11-02T07:06:30;14.60;86.70
64817;DHT22;53289;45.602;11.904;2022-11-02T07:08:56;14.60;86.70
64817;DHT22;53289;45.602;11.904;2022-11-02T07:11:22;14.70;86.60
64817;DHT22;53289;45.602;11.904;2022-11-02T07:13:48;14.70;86.50
64817;DHT22;53289;45.602;11.904;2022-11-02T07:16:14;14.80;86.50
64817;DHT22;53289;45.602;11.904;2022-11-02T07:18:40;14.80;86.40
64817;DHT22;53289;45.602;11.904;2022-11-02T07:21:07;14.80;86.40
64817;DHT22;53289;45.602;11.904;2022-11-02T07:23:35;14.80;86.30
64817;DHT22;53289;45.602;11.904;2022-11-02T07:26:02;14.80;86.30
64817;DHT22;53289;45.602;11.904;2022-11-02T07:28:28;14.90;86.30
64817;DHT22;53289;45.602;11.904;2022-11-02T07:30:54;14.90;86.20
64817;DHT22;53289;45.602;11.904;2022-11-02T07:33:20;14.90;86.20
64817;DHT22;53289;45.602;11.904;2022-11-02T07:35:47;15.00;86.20
64817;DHT22;53289;45.602;11.904;2022-11-02T07:38:13;15.00;86.30
64817;DHT22;53289;45.602;11.904;2022-11-02T07:40:39;15.00;86.30
64817;DHT22;53289;45.602;11.904;2022-11-02T07:43:06;15.00;86.10
64817;DHT22;53289;45.602;11.904;2022-11-02T07:45:32;15.00;86.10
64817;DHT22;53289;45.602;11.904;2022-11-02T07:47:58;15.00;86.10
64817;DHT22;53289;45.602;11.904;2022-11-02T07:50:24;15.10;86.10
64817;DHT22;53289;45.602;11.904;2022-11-02T07:52:53;15.10;86.00
64817;DHT22;53289;45.602;11.904;2022-11-02T07:55:21;15.20;86.00
64817;DHT22;53289;45.602;11.904;2022-11-02T07:57:55;15.20;86.00
64817;DHT22;53289;45.602;11.904;2022-11-02T08:00:23;15.20;86.00
64817;DHT22;53289;45.602;11.904;2022-11-02T08:02:57;15.30;86.60
64817;DHT22;53289;45.602;11.904;2022-11-02T08:05:23;15.30;86.40
64817;DHT22;53289;45.602;11.904;2022-11-02T08:08:01;15.40;86.60
64817;DHT22;53289;45.602;11.904;2022-11-02T08:10:29;15.40;86.60
64817;DHT22;53289;45.602;11.904;2022-11-02T08:12:56;15.40;86.40
64817;DHT22;53289;45.602;11.904;2022-11-02T08:15:23;15.50;86.30
64817;DHT22;53289;45.602;11.904;2022-11-02T08:18:22;15.50;85.60
64817;DHT22;53289;45.602;11.904;2022-11-02T08:20:49;15.50;85.30
64817;DHT22;53289;45.602;11.904;2022-11-02T08:23:16;15.40;85.50
64817;DHT22;53289;45.602;11.904;2022-11-02T08:25:44;15.50;85.80
64817;DHT22;53289;45.602;11.904;2022-11-02T08:28:14;15.60;85.40
64817;DHT22;53289;45.602;11.904;2022-11-02T08:30:40;15.70;85.40
64817;DHT22;53289;45.602;11.904;2022-11-02T08:33:11;15.80;85.30
64817;DHT22;53289;45.602;11.904;2022-11-02T08:35:39;16.00;85.30
64817;DHT22;53289;45.602;11.904;2022-11-02T08:38:05;16.20;85.50
64817;DHT22;53289;45.602;11.904;2022-11-02T08:40:32;16.40;84.70
64817;DHT22;53289;45.602;11.904;2022-11-02T08:42:59;16.70;84.30
64817;DHT22;53289;45.602;11.904;2022-11-02T08:45:26;16.90;83.70
64817;DHT22;53289;45.602;11.904;2022-11-02T08:47:53;17.00;82.90
64817;DHT22;53289;45.602;11.904;2022-11-02T08:50:19;17.20;82.60
64817;DHT22;53289;45.602;11.904;2022-11-02T08:52:45;17.50;82.70
64817;DHT22;53289;45.602;11.904;2022-11-02T08:55:11;17.80;82.10
64817;DHT22;53289;45.602;11.904;2022-11-02T08:57:47;18.00;81.10
64817;DHT22;53289;45.602;11.904;2022-11-02T09:00:14;18.20;80.70
64817;DHT22;53289;45.602;11.904;2022-11-02T09:02:40;18.40;80.60
64817;DHT22;53289;45.602;11.904;2022-11-02T09:05:07;18.60;80.20
64817;DHT22;53289;45.602;11.904;2022-11-02T09:07:33;18.80;80.10
64817;DHT22;53289;45.602;11.904;2022-11-02T09:09:59;19.00;79.20
64817;DHT22;53289;45.602;11.904;2022-11-02T09:12:25;19.10;78.40
64817;DHT22;53289;45.602;11.904;2022-11-02T09:14:51;19.10;77.90
64817;DHT22;53289;45.602;11.904;2022-11-02T09:17:17;19.20;78.10
64817;DHT22;53289;45.602;11.904;2022-11-02T09:19:43;19.40;78.10
64817;DHT22;53289;45.602;11.904;2022-11-02T09:22:09;19.60;77.60
64817;DHT22;53289;45.602;11.904;2022-11-02T09:24:35;19.80;76.00
64817;DHT22;53289;45.602;11.904;2022-11-02T09:27:00;20.00;76.00
64817;DHT22;53289;45.602;11.904;2022-11-02T09:29:26;20.30;75.90
64817;DHT22;53289;45.602;11.904;2022-11-02T09:31:52;20.50;75.20
64817;DHT22;53289;45.602;11.904;2022-11-02T09:34:18;20.80;73.80
64817;DHT22;53289;45.602;11.904;2022-11-02T09:36:44;21.10;73.40
64817;DHT22;53289;45.602;11.904;2022-11-02T09:39:10;21.30;72.50
64817;DHT22;53289;45.602;11.904;2022-11-02T09:42:05;21.40;72.10
64817;DHT22;53289;45.602;11.904;2022-11-02T09:44:48;21.40;72.10
64817;DHT22;53289;45.602;11.904;2022-11-02T09:47:18;21.40;69.80
64817;DHT22;53289;45.602;11.904;2022-11-02T09:49:45;21.30;71.20
64817;DHT22;53289;45.602;11.904;2022-11-02T09:52:35;21.20;71.60
64817;DHT22;53289;45.602;11.904;2022-11-02T09:55:14;21.30;69.60
64817;DHT22;53289;45.602;11.904;2022-11-02T09:57:45;21.30;70.80
64817;DHT22;53289;45.602;11.904;2022-11-02T10:00:14;21.30;71.40
64817;DHT22;53289;45.602;11.904;2022-11-02T10:03:19;21.40;71.30
64817;DHT22;53289;45.602;11.904;2022-11-02T10:08:50;21.70;70.80
64817;DHT22;53289;45.602;11.904;2022-11-02T10:13:56;22.40;69.20
64817;DHT22;53289;45.602;11.904;2022-11-02T10:19:32;22.80;66.40
64817;DHT22;53289;45.602;11.904;2022-11-02T10:21:59;22.50;66.70
64817;DHT22;53289;45.602;11.904;2022-11-02T10:24:42;22.40;68.00
64817;DHT22;53289;45.602;11.904;2022-11-02T10:27:23;22.40;67.50
64817;DHT22;53289;45.602;11.904;2022-11-02T10:30:05;22.20;67.90
64817;DHT22;53289;45.602;11.904;2022-11-02T10:32:35;22.00;68.40
64817;DHT22;53289;45.602;11.904;2022-11-02T10:35:11;21.90;68.50
64817;DHT22;53289;45.602;11.904;2022-11-02T10:43:05;22.80;65.60
64817;DHT22;53289;45.602;11.904;2022-11-02T10:45:41;23.20;64.60
64817;DHT22;53289;45.602;11.904;2022-11-02T10:48:31;23.60;62.00
64817;DHT22;53289;45.602;11.904;2022-11-02T10:51:09;23.80;62.00
64817;DHT22;53289;45.602;11.904;2022-11-02T10:53:56;23.80;62.30
64817;DHT22;53289;45.602;11.904;2022-11-02T10:56:30;23.90;61.00
64817;DHT22;53289;45.602;11.904;2022-11-02T10:59:07;23.80;61.20
64817;DHT22;53289;45.602;11.904;2022-11-02T11:01:34;23.70;61.70
64817;DHT22;53289;45.602;11.904;2022-11-02T11:04:02;23.70;61.90
64817;DHT22;53289;45.602;11.904;2022-11-02T11:06:38;23.80;60.30
64817;DHT22;53289;45.602;11.904;2022-11-02T11:09:16;23.80;60.80
64817;DHT22;53289;45.602;11.904;2022-11-02T11:12:04;23.60;60.80
64817;DHT22;53289;45.602;11.904;2022-11-02T11:14:46;23.60;60.60
64817;DHT22;53289;45.602;11.904;2022-11-02T11:17:16;23.60;60.30
64817;DHT22;53289;45.602;11.904;2022-11-02T11:19:49;23.40;60.70
64817;DHT22;53289;45.602;11.904;2022-11-02T11:22:37;23.30;60.70
64817;DHT22;53289;45.602;11.904;2022-11-02T11:27:54;23.20;60.80
64817;DHT22;53289;45.602;11.904;2022-11-02T11:32:53;23.40;60.50
64817;DHT22;53289;45.602;11.904;2022-11-02T11:35:21;23.60;60.40
64817;DHT22;53289;45.602;11.904;2022-11-02T11:37:52;23.80;60.40
64817;DHT22;53289;45.602;11.904;2022-11-02T11:40:20;23.80;60.10
64817;DHT22;53289;45.602;11.904;2022-11-02T11:42:52;23.70;60.60
64817;DHT22;53289;45.602;11.904;2022-11-02T11:45:31;23.70;60.80
64817;DHT22;53289;45.602;11.904;2022-11-02T11:50:46;23.70;60.60
64817;DHT22;53289;45.602;11.904;2022-11-02T11:53:23;23.60;61.00
64817;DHT22;53289;45.602;11.904;2022-11-02T11:55:57;23.60;61.00
64817;DHT22;53289;45.602;11.904;2022-11-02T11:58:27;23.60;61.00
64817;DHT22;53289;45.602;11.904;2022-11-02T12:06:50;23.40;61.40
64817;DHT22;53289;45.602;11.904;2022-11-02T12:09:37;23.40;61.40
64817;DHT22;53289;45.602;11.904;2022-11-02T12:17:50;23.10;62.40
64817;DHT22;53289;45.602;11.904;2022-11-02T12:31:44;22.90;62.80
64817;DHT22;53289;45.602;11.904;2022-11-02T12:41:03;23.40;61.20
64817;DHT22;53289;45.602;11.904;2022-11-02T12:46:21;23.40;60.70
64817;DHT22;53289;45.602;11.904;2022-11-02T12:51:53;23.40;60.20
64817;DHT22;53289;45.602;11.904;2022-11-02T12:54:34;23.30;60.50
64817;DHT22;53289;45.602;11.904;2022-11-02T12:57:02;23.30;60.70
64817;DHT22;53289;45.602;11.904;2022-11-02T12:59:31;23.00;61.00
64817;DHT22;53289;45.602;11.904;2022-11-02T13:02:20;22.80;61.60
64817;DHT22;53289;45.602;11.904;2022-11-02T13:05:11;22.40;62.10
64817;DHT22;53289;45.602;11.904;2022-11-02T13:07:58;22.10;62.90
64817;DHT22;53289;45.602;11.904;2022-11-02T13:10:55;21.90;63.70
64817;DHT22;53289;45.602;11.904;2022-11-02T13:13:36;21.90;63.80
64817;DHT22;53289;45.602;11.904;2022-11-02T13:16:06;21.90;63.70
64817;DHT22;53289;45.602;11.904;2022-11-02T13:18:51;22.00;63.80
64817;DHT22;53289;45.602;11.904;2022-11-02T13:21:35;22.00;63.60
64817;DHT22;53289;45.602;11.904;2022-11-02T13:24:01;22.00;63.70
64817;DHT22;53289;45.602;11.904;2022-11-02T13:26:40;22.10;63.70
64817;DHT22;53289;45.602;11.904;2022-11-02T13:32:29;22.20;63.20
64817;DHT22;53289;45.602;11.904;2022-11-02T13:34:58;22.10;63.20
64817;DHT22;53289;45.602;11.904;2022-11-02T13:37:34;22.00;63.10
64817;DHT22;53289;45.602;11.904;2022-11-02T13:40:12;21.90;63.80
64817;DHT22;53289;45.602;11.904;2022-11-02T13:45:39;21.70;64.20
64817;DHT22;53289;45.602;11.904;2022-11-02T13:50:52;21.60;64.60
64817;DHT22;53289;45.602;11.904;2022-11-02T13:53:34;21.60;64.50
64817;DHT22;53289;45.602;11.904;2022-11-02T13:56:10;21.60;64.50
64817;DHT22;53289;45.602;11.904;2022-11-02T13:58:47;21.60;64.50
64817;DHT22;53289;45.602;11.904;2022-11-02T14:01:18;21.50;64.60
64817;DHT22;53289;45.602;11.904;2022-11-02T14:06:16;21.30;65.10
64817;DHT22;53289;45.602;11.904;2022-11-02T14:08:58;21.20;65.20
64817;DHT22;53289;45.602;11.904;2022-11-02T14:19:31;20.90;66.30
64817;DHT22;53289;45.602;11.904;2022-11-02T14:22:15;20.90;66.30
64817;DHT22;53289;45.602;11.904;2022-11-02T14:49:23;20.40;67.60
64817;DHT22;53289;45.602;11.904;2022-11-02T14:57:56;20.20;68.20
64817;DHT22;53289;45.602;11.904;2022-11-02T15:00:32;20.00;68.60
64817;DHT22;53289;45.602;11.904;2022-11-02T15:03:05;19.90;68.80
64817;DHT22;53289;45.602;11.904;2022-11-02T15:05:37;19.90;69.10
64817;DHT22;53289;45.602;11.904;2022-11-02T15:08:07;19.80;69.40
64817;DHT22;53289;45.602;11.904;2022-11-02T15:10:38;19.70;69.60
64817;DHT22;53289;45.602;11.904;2022-11-02T15:18:33;19.40;70.40
64817;DHT22;53289;45.602;11.904;2022-11-02T15:24:23;19.20;71.10
64817;DHT22;53289;45.602;11.904;2022-11-02T15:26:58;19.00;71.90
64817;DHT22;53289;45.602;11.904;2022-11-02T15:29:42;18.90;72.50
64817;DHT22;53289;45.602;11.904;2022-11-02T15:32:23;18.70;72.50
64817;DHT22;53289;45.602;11.904;2022-11-02T15:34:52;18.50;73.30
64817;DHT22;53289;45.602;11.904;2022-11-02T15:37:22;18.40;73.40
64817;DHT22;53289;45.602;11.904;2022-11-02T15:39:55;18.20;74.00
64817;DHT22;53289;45.602;11.904;2022-11-02T15:48:40;17.70;76.00
64817;DHT22;53289;45.602;11.904;2022-11-02T15:57:44;17.30;77.20
64817;DHT22;53289;45.602;11.904;2022-11-02T16:02:28;17.20;77.00
64817;DHT22;53289;45.602;11.904;2022-11-02T16:05:00;17.10;77.30
64817;DHT22;53289;45.602;11.904;2022-11-02T16:07:28;17.00;77.50
64817;DHT22;53289;45.602;11.904;2022-11-02T16:15:22;17.00;77.80
64817;DHT22;53289;45.602;11.904;2022-11-02T16:17:49;17.00;77.80
64817;DHT22;53289;45.602;11.904;2022-11-02T16:20:29;16.90;77.90
64817;DHT22;53289;45.602;11.904;2022-11-02T16:22:59;16.90;77.90
64817;DHT22;53289;45.602;11.904;2022-11-02T16:25:39;16.90;78.00
64817;DHT22;53289;45.602;11.904;2022-11-02T16:28:27;16.90;78.00
64817;DHT22;53289;45.602;11.904;2022-11-02T16:31:14;16.90;78.00
64817;DHT22;53289;45.602;11.904;2022-11-02T16:33:50;16.80;78.10
64817;DHT22;53289;45.602;11.904;2022-11-02T16:36:22;16.70;78.20
64817;DHT22;53289;45.602;11.904;2022-11-02T16:41:33;16.60;78.60
64817;DHT22;53289;45.602;11.904;2022-11-02T16:44:07;16.50;78.90
64817;DHT22;53289;45.602;11.904;2022-11-02T16:46:58;16.50;79.00
64817;DHT22;53289;45.602;11.904;2022-11-02T16:49:26;16.50;79.10
64817;DHT22;53289;45.602;11.904;2022-11-02T16:51:55;16.50;79.10
64817;DHT22;53289;45.602;11.904;2022-11-02T16:57:33;16.40;79.20
64817;DHT22;53289;45.602;11.904;2022-11-02T17:00:17;16.30;79.70
64817;DHT22;53289;45.602;11.904;2022-11-02T17:02:44;16.20;80.00
64817;DHT22;53289;45.602;11.904;2022-11-02T17:05:24;16.20;80.10
64817;DHT22;53289;45.602;11.904;2022-11-02T17:08:02;16.20;79.90
64817;DHT22;53289;45.602;11.904;2022-11-02T17:10:31;16.20;79.80
64817;DHT22;53289;45.602;11.904;2022-11-02T17:12:59;16.20;79.90
64817;DHT22;53289;45.602;11.904;2022-11-02T17:15:27;16.20;79.90
64817;DHT22;53289;45.602;11.904;2022-11-02T17:18:13;16.20;79.90
64817;DHT22;53289;45.602;11.904;2022-11-02T17:20:41;16.20;80.00
64817;DHT22;53289;45.602;11.904;2022-11-02T17:23:09;16.20;80.20
64817;DHT22;53289;45.602;11.904;2022-11-02T17:25:37;16.20;80.20
64817;DHT22;53289;45.602;11.904;2022-11-02T17:31:00;16.20;80.20
64817;DHT22;53289;45.602;11.904;2022-11-02T17:33:29;16.20;80.10
64817;DHT22;53289;45.602;11.904;2022-11-02T17:36:03;16.10;80.10
64817;DHT22;53289;45.602;11.904;2022-11-02T17:38:30;16.10;80.30
64817;DHT22;53289;45.602;11.904;2022-11-02T17:40:58;16.10;80.30
64817;DHT22;53289;45.602;11.904;2022-11-02T17:43:24;16.10;80.40
64817;DHT22;53289;45.602;11.904;2022-11-02T17:45:58;16.00;80.30
64817;DHT22;53289;45.602;11.904;2022-11-02T17:48:26;16.00;80.30
64817;DHT22;53289;45.602;11.904;2022-11-02T17:50:57;15.90;80.50
64817;DHT22;53289;45.602;11.904;2022-11-02T17:53:24;15.90;80.40
64817;DHT22;53289;45.602;11.904;2022-11-02T17:55:50;15.90;80.60
64817;DHT22;53289;45.602;11.904;2022-11-02T17:58:17;15.90;80.50
64817;DHT22;53289;45.602;11.904;2022-11-02T18:00:43;15.90;80.60
64817;DHT22;53289;45.602;11.904;2022-11-02T18:03:18;15.90;80.80
64817;DHT22;53289;45.602;11.904;2022-11-02T18:05:46;15.90;81.10
64817;DHT22;53289;45.602;11.904;2022-11-02T18:08:13;15.90;81.00
64817;DHT22;53289;45.602;11.904;2022-11-02T18:10:41;15.90;81.00
64817;DHT22;53289;45.602;11.904;2022-11-02T18:13:12;15.90;81.20
64817;DHT22;53289;45.602;11.904;2022-11-02T18:15:38;15.90;81.20
64817;DHT22;53289;45.602;11.904;2022-11-02T18:18:04;15.90;81.20
64817;DHT22;53289;45.602;11.904;2022-11-02T18:20:31;15.90;81.30
64817;DHT22;53289;45.602;11.904;2022-11-02T18:22:59;15.90;81.30
64817;DHT22;53289;45.602;11.904;2022-11-02T18:25:26;15.80;81.20
64817;DHT22;53289;45.602;11.904;2022-11-02T18:27:57;15.80;81.20